sensor_id;sensor_type;location;lat;lon;timestamp;temperature;humidity
14585;DHT22;7379;51.506;11.876;2024-03-17T00:01:00;7.80;68.40
14585;DHT22;7379;51.506;11.876;2024-03-17T00:03:27;7.80;68.30
14585;DHT22;7379;51.506;11.876;2024-03-17T00:05:59;7.70;68.50
14585;DHT22;7379;51.506;11.876;2024-03-17T00:08:25;7.70;68.20
14585;DHT22;7379;51.506;11.876;2024-03-17T00:10:52;7.70;68.20
14585;DHT22;7379;51.506;11.876;2024-03-17T00:13:18;7.70;68.40
14585;DHT22;7379;51.506;11.876;2024-03-17T00:15:44;7.70;68.40
14585;DHT22;7379;51.506;11.876;2024-03-17T00:18:10;7.70;68.20
14585;DHT22;7379;51.506;11.876;2024-03-17T00:20:37;7.60;68.30
14585;DHT22;7379;51.506;11.876;2024-03-17T00:23:05;7.60;68.30
14585;DHT22;7379;51.506;11.876;2024-03-17T00:25:33;7.60;68.20
14585;DHT22;7379;51.506;11.876;2024-03-17T00:27:59;7.60;68.40
14585;DHT22;7379;51.506;11.876;2024-03-17T00:30:26;7.60;68.30
14585;DHT22;7379;51.506;11.876;2024-03-17T00:32:52;7.60;68.30
14585;DHT22;7379;51.506;11.876;2024-03-17T00:35:18;7.60;68.00
14585;DHT22;7379;51.506;11.876;2024-03-17T00:37:46;7.50;68.00
14585;DHT22;7379;51.506;11.876;2024-03-17T00:40:14;7.50;68.00
14585;DHT22;7379;51.506;11.876;2024-03-17T00:42:41;7.50;68.30
14585;DHT22;7379;51.506;11.876;2024-03-17T00:45:08;7.50;68.30
14585;DHT22;7379;51.506;11.876;2024-03-17T00:47:35;7.50;68.40
14585;DHT22;7379;51.506;11.876;2024-03-17T00:50:01;7.40;68.30
14585;DHT22;7379;51.506;11.876;2024-03-17T00:52:29;7.40;68.20
14585;DHT22;7379;51.506;11.876;2024-03-17T00:54:54;7.40;68.30
14585;DHT22;7379;51.506;11.876;2024-03-17T00:57:22;7.40;68.30
14585;DHT22;7379;51.506;11.876;2024-03-17T00:59:48;7.40;68.30
14585;DHT22;7379;51.506;11.876;2024-03-17T01:02:15;7.40;68.40
14585;DHT22;7379;51.506;11.876;2024-03-17T01:04:41;7.40;68.50
14585;DHT22;7379;51.506;11.876;2024-03-17T01:07:09;7.30;68.40
14585;DHT22;7379;51.506;11.876;2024-03-17T01:09:35;7.30;68.50
14585;DHT22;7379;51.506;11.876;2024-03-17T01:12:01;7.30;68.60
14585;DHT22;7379;51.506;11.876;2024-03-17T01:14:29;7.30;68.70
14585;DHT22;7379;51.506;11.876;2024-03-17T01:16:56;7.30;68.60
14585;DHT22;7379;51.506;11.876;2024-03-17T01:19:22;7.30;68.50
14585;DHT22;7379;51.506;11.876;2024-03-17T01:21:50;7.30;68.50
14585;DHT22;7379;51.506;11.876;2024-03-17T01:24:17;7.30;68.60
14585;DHT22;7379;51.506;11.876;2024-03-17T01:26:43;7.30;68.70
14585;DHT22;7379;51.506;11.876;2024-03-17T01:29:10;7.20;68.70
14585;DHT22;7379;51.506;11.876;2024-03-17T01:31:38;7.20;68.70
14585;DHT22;7379;51.506;11.876;2024-03-17T01:34:03;7.20;68.80
14585;DHT22;7379;51.506;11.876;2024-03-17T01:36:30;7.20;68.90
14585;DHT22;7379;51.506;11.876;2024-03-17T01:38:56;7.20;69.00
14585;DHT22;7379;51.506;11.876;2024-03-17T01:41:23;7.10;68.90
14585;DHT22;7379;51.506;11.876;2024-03-17T01:43:48;7.10;69.00
14585;DHT22;7379;51.506;11.876;2024-03-17T01:46:17;7.10;69.00
14585;DHT22;7379;51.506;11.876;2024-03-17T01:48:44;7.10;69.00
14585;DHT22;7379;51.506;11.876;2024-03-17T01:51:11;7.10;69.10
14585;DHT22;7379;51.506;11.876;2024-03-17T01:53:39;7.00;69.00
14585;DHT22;7379;51.506;11.876;2024-03-17T01:56:07;7.00;69.10
14585;DHT22;7379;51.506;11.876;2024-03-17T01:58:34;7.00;69.20
14585;DHT22;7379;51.506;11.876;2024-03-17T02:01:02;7.00;69.20
14585;DHT22;7379;51.506;11.876;2024-03-17T02:03:29;7.00;69.30
14585;DHT22;7379;51.506;11.876;2024-03-17T02:05:57;7.00;69.20
14585;DHT22;7379;51.506;11.876;2024-03-17T02:08:23;7.00;69.30
14585;DHT22;7379;51.506;11.876;2024-03-17T02:10:52;7.00;69.40
14585;DHT22;7379;51.506;11.876;2024-03-17T02:13:19;6.90;69.30
14585;DHT22;7379;51.506;11.876;2024-03-17T02:15:46;6.90;69.30
14585;DHT22;7379;51.506;11.876;2024-03-17T02:18:11;6.90;69.40
14585;DHT22;7379;51.506;11.876;2024-03-17T02:20:38;6.90;69.40
14585;DHT22;7379;51.506;11.876;2024-03-17T02:23:26;6.90;69.40
14585;DHT22;7379;51.506;11.876;2024-03-17T02:25:52;6.90;69.30
14585;DHT22;7379;51.506;11.876;2024-03-17T02:28:18;6.90;69.40
14585;DHT22;7379;51.506;11.876;2024-03-17T02:30:45;6.90;69.30
14585;DHT22;7379;51.506;11.876;2024-03-17T02:33:11;6.90;69.30
14585;DHT22;7379;51.506;11.876;2024-03-17T02:35:38;6.90;69.40
14585;DHT22;7379;51.506;11.876;2024-03-17T02:38:03;6.80;69.40
14585;DHT22;7379;51.506;11.876;2024-03-17T02:40:31;6.90;69.50
14585;DHT22;7379;51.506;11.876;2024-03-17T02:42:57;6.80;69.40
14585;DHT22;7379;51.506;11.876;2024-03-17T02:45:24;6.90;69.60
14585;DHT22;7379;51.506;11.876;2024-03-17T02:47:50;6.80;69.50
14585;DHT22;7379;51.506;11.876;2024-03-17T02:50:17;6.80;69.50
14585;DHT22;7379;51.506;11.876;2024-03-17T02:52:44;6.80;69.60
14585;DHT22;7379;51.506;11.876;2024-03-17T02:55:10;6.70;69.60
14585;DHT22;7379;51.506;11.876;2024-03-17T02:57:38;6.70;69.70
14585;DHT22;7379;51.506;11.876;2024-03-17T03:00:07;6.70;69.80
14585;DHT22;7379;51.506;11.876;2024-03-17T03:02:38;6.70;69.80
14585;DHT22;7379;51.506;11.876;2024-03-17T03:05:05;6.60;69.60
14585;DHT22;7379;51.506;11.876;2024-03-17T03:07:32;6.60;69.60
14585;DHT22;7379;51.506;11.876;2024-03-17T03:09:59;6.60;69.70
14585;DHT22;7379;51.506;11.876;2024-03-17T03:12:26;6.50;69.80
14585;DHT22;7379;51.506;11.876;2024-03-17T03:14:54;6.60;69.90
14585;DHT22;7379;51.506;11.876;2024-03-17T03:17:20;6.50;69.70
14585;DHT22;7379;51.506;11.876;2024-03-17T03:19:47;6.50;69.80
14585;DHT22;7379;51.506;11.876;2024-03-17T03:22:14;6.50;69.90
14585;DHT22;7379;51.506;11.876;2024-03-17T03:24:41;6.50;69.90
14585;DHT22;7379;51.506;11.876;2024-03-17T03:27:07;6.50;70.00
14585;DHT22;7379;51.506;11.876;2024-03-17T03:29:34;6.50;70.10
14585;DHT22;7379;51.506;11.876;2024-03-17T03:32:02;6.50;70.10
14585;DHT22;7379;51.506;11.876;2024-03-17T03:34:28;6.40;70.10
14585;DHT22;7379;51.506;11.876;2024-03-17T03:36:55;6.50;70.20
14585;DHT22;7379;51.506;11.876;2024-03-17T03:39:22;6.40;70.10
14585;DHT22;7379;51.506;11.876;2024-03-17T03:41:49;6.40;70.10
14585;DHT22;7379;51.506;11.876;2024-03-17T03:44:17;6.40;70.10
14585;DHT22;7379;51.506;11.876;2024-03-17T03:46:44;6.40;70.30
14585;DHT22;7379;51.506;11.876;2024-03-17T03:49:13;6.40;70.20
14585;DHT22;7379;51.506;11.876;2024-03-17T03:51:40;6.30;70.10
14585;DHT22;7379;51.506;11.876;2024-03-17T03:54:06;6.30;70.10
14585;DHT22;7379;51.506;11.876;2024-03-17T03:56:33;6.30;70.10
14585;DHT22;7379;51.506;11.876;2024-03-17T03:58:59;6.30;70.00
14585;DHT22;7379;51.506;11.876;2024-03-17T04:01:26;6.30;70.20
14585;DHT22;7379;51.506;11.876;2024-03-17T04:03:53;6.30;70.30
14585;DHT22;7379;51.506;11.876;2024-03-17T04:06:21;6.20;70.20
14585;DHT22;7379;51.506;11.876;2024-03-17T04:08:48;6.20;70.20
14585;DHT22;7379;51.506;11.876;2024-03-17T04:11:15;6.30;70.40
14585;DHT22;7379;51.506;11.876;2024-03-17T04:13:42;6.20;70.40
14585;DHT22;7379;51.506;11.876;2024-03-17T04:16:08;6.20;70.40
14585;DHT22;7379;51.506;11.876;2024-03-17T04:18:36;6.20;70.40
14585;DHT22;7379;51.506;11.876;2024-03-17T04:21:04;6.20;70.40
14585;DHT22;7379;51.506;11.876;2024-03-17T04:23:33;6.20;70.40
14585;DHT22;7379;51.506;11.876;2024-03-17T04:26:00;6.20;70.60
14585;DHT22;7379;51.506;11.876;2024-03-17T04:28:28;6.20;70.50
14585;DHT22;7379;51.506;11.876;2024-03-17T04:31:02;6.20;70.50
14585;DHT22;7379;51.506;11.876;2024-03-17T04:33:31;6.20;70.60
14585;DHT22;7379;51.506;11.876;2024-03-17T04:35:57;6.20;70.60
14585;DHT22;7379;51.506;11.876;2024-03-17T04:38:24;6.10;70.70
14585;DHT22;7379;51.506;11.876;2024-03-17T04:40:52;6.10;70.70
14585;DHT22;7379;51.506;11.876;2024-03-17T04:43:24;6.10;70.80
14585;DHT22;7379;51.506;11.876;2024-03-17T04:45:59;6.10;70.90
14585;DHT22;7379;51.506;11.876;2024-03-17T04:48:26;6.10;70.80
14585;DHT22;7379;51.506;11.876;2024-03-17T04:50:52;6.10;70.80
14585;DHT22;7379;51.506;11.876;2024-03-17T04:53:19;6.10;70.80
14585;DHT22;7379;51.506;11.876;2024-03-17T04:55:46;6.00;70.80
14585;DHT22;7379;51.506;11.876;2024-03-17T04:58:14;6.00;70.80
14585;DHT22;7379;51.506;11.876;2024-03-17T05:00:40;6.00;70.80
14585;DHT22;7379;51.506;11.876;2024-03-17T05:03:07;6.00;70.90
14585;DHT22;7379;51.506;11.876;2024-03-17T05:05:33;6.00;71.00
14585;DHT22;7379;51.506;11.876;2024-03-17T05:08:00;6.00;70.90
14585;DHT22;7379;51.506;11.876;2024-03-17T05:10:27;6.00;70.90
14585;DHT22;7379;51.506;11.876;2024-03-17T05:12:53;6.00;70.80
14585;DHT22;7379;51.506;11.876;2024-03-17T05:15:22;6.00;70.70
14585;DHT22;7379;51.506;11.876;2024-03-17T05:17:49;6.00;70.70
14585;DHT22;7379;51.506;11.876;2024-03-17T05:20:16;6.00;70.60
14585;DHT22;7379;51.506;11.876;2024-03-17T05:22:43;6.00;70.60
14585;DHT22;7379;51.506;11.876;2024-03-17T05:25:11;6.00;70.60
14585;DHT22;7379;51.506;11.876;2024-03-17T05:27:39;5.90;70.60
14585;DHT22;7379;51.506;11.876;2024-03-17T05:30:07;5.90;70.60
14585;DHT22;7379;51.506;11.876;2024-03-17T05:32:35;5.90;70.50
14585;DHT22;7379;51.506;11.876;2024-03-17T05:35:02;5.90;70.50
14585;DHT22;7379;51.506;11.876;2024-03-17T05:37:29;5.90;70.60
14585;DHT22;7379;51.506;11.876;2024-03-17T05:39:56;5.80;70.50
14585;DHT22;7379;51.506;11.876;2024-03-17T05:42:22;5.80;70.60
14585;DHT22;7379;51.506;11.876;2024-03-17T05:44:49;5.80;70.60
14585;DHT22;7379;51.506;11.876;2024-03-17T05:47:17;5.80;70.60
14585;DHT22;7379;51.506;11.876;2024-03-17T05:49:45;5.80;70.70
14585;DHT22;7379;51.506;11.876;2024-03-17T05:52:12;5.80;70.70
14585;DHT22;7379;51.506;11.876;2024-03-17T05:54:38;5.80;70.70
14585;DHT22;7379;51.506;11.876;2024-03-17T05:57:05;5.80;70.70
14585;DHT22;7379;51.506;11.876;2024-03-17T05:59:32;5.80;70.70
14585;DHT22;7379;51.506;11.876;2024-03-17T06:01:59;5.80;70.60
14585;DHT22;7379;51.506;11.876;2024-03-17T06:04:26;5.80;71.40
14585;DHT22;7379;51.506;11.876;2024-03-17T06:06:54;5.70;70.60
14585;DHT22;7379;51.506;11.876;2024-03-17T06:09:20;5.70;70.60
14585;DHT22;7379;51.506;11.876;2024-03-17T06:11:48;5.70;70.60
14585;DHT22;7379;51.506;11.876;2024-03-17T06:14:16;5.60;70.60
14585;DHT22;7379;51.506;11.876;2024-03-17T06:16:42;5.60;70.60
14585;DHT22;7379;51.506;11.876;2024-03-17T06:19:10;5.70;70.70
14585;DHT22;7379;51.506;11.876;2024-03-17T06:21:37;5.60;70.60
14585;DHT22;7379;51.506;11.876;2024-03-17T06:24:06;5.60;70.60
14585;DHT22;7379;51.506;11.876;2024-03-17T06:26:33;5.60;70.50
14585;DHT22;7379;51.506;11.876;2024-03-17T06:29:00;5.60;70.50
14585;DHT22;7379;51.506;11.876;2024-03-17T06:31:27;5.60;70.60
14585;DHT22;7379;51.506;11.876;2024-03-17T06:33:54;5.60;70.60
14585;DHT22;7379;51.506;11.876;2024-03-17T06:36:20;5.60;70.60
14585;DHT22;7379;51.506;11.876;2024-03-17T06:38:47;5.60;70.60
14585;DHT22;7379;51.506;11.876;2024-03-17T06:41:15;5.60;70.70
14585;DHT22;7379;51.506;11.876;2024-03-17T06:43:42;5.60;70.70
14585;DHT22;7379;51.506;11.876;2024-03-17T06:46:09;5.60;70.80
14585;DHT22;7379;51.506;11.876;2024-03-17T06:48:36;5.60;71.10
14585;DHT22;7379;51.506;11.876;2024-03-17T06:51:03;5.60;71.10
14585;DHT22;7379;51.506;11.876;2024-03-17T06:53:30;5.60;71.20
14585;DHT22;7379;51.506;11.876;2024-03-17T06:55:59;5.60;71.50
14585;DHT22;7379;51.506;11.876;2024-03-17T06:58:27;5.60;71.50
14585;DHT22;7379;51.506;11.876;2024-03-17T07:00:55;5.60;71.50
14585;DHT22;7379;51.506;11.876;2024-03-17T07:03:26;5.60;71.60
14585;DHT22;7379;51.506;11.876;2024-03-17T07:05:54;5.60;71.70
14585;DHT22;7379;51.506;11.876;2024-03-17T07:08:20;5.60;71.80
14585;DHT22;7379;51.506;11.876;2024-03-17T07:11:00;5.60;71.90
14585;DHT22;7379;51.506;11.876;2024-03-17T07:13:31;5.60;71.90
14585;DHT22;7379;51.506;11.876;2024-03-17T07:15:58;5.60;71.90
14585;DHT22;7379;51.506;11.876;2024-03-17T07:18:25;5.70;72.00
14585;DHT22;7379;51.506;11.876;2024-03-17T07:20:53;5.70;72.10
14585;DHT22;7379;51.506;11.876;2024-03-17T07:23:19;5.70;72.20
14585;DHT22;7379;51.506;11.876;2024-03-17T07:25:52;5.80;72.30
14585;DHT22;7379;51.506;11.876;2024-03-17T07:28:20;5.80;72.30
14585;DHT22;7379;51.506;11.876;2024-03-17T07:30:48;5.90;72.50
14585;DHT22;7379;51.506;11.876;2024-03-17T07:33:16;5.90;72.70
14585;DHT22;7379;51.506;11.876;2024-03-17T07:35:53;6.00;73.00
14585;DHT22;7379;51.506;11.876;2024-03-17T07:38:20;6.10;73.00
14585;DHT22;7379;51.506;11.876;2024-03-17T07:40:56;6.10;72.80
14585;DHT22;7379;51.506;11.876;2024-03-17T07:43:23;6.10;72.70
14585;DHT22;7379;51.506;11.876;2024-03-17T07:45:59;6.10;73.00
14585;DHT22;7379;51.506;11.876;2024-03-17T07:48:25;6.10;73.30
14585;DHT22;7379;51.506;11.876;2024-03-17T07:50:56;6.10;73.80
14585;DHT22;7379;51.506;11.876;2024-03-17T07:53:22;6.10;73.90
14585;DHT22;7379;51.506;11.876;2024-03-17T07:55:57;6.10;74.30
14585;DHT22;7379;51.506;11.876;2024-03-17T07:58:24;6.10;74.50
14585;DHT22;7379;51.506;11.876;2024-03-17T08:00:51;6.20;74.50
14585;DHT22;7379;51.506;11.876;2024-03-17T08:03:20;6.20;74.60
14585;DHT22;7379;51.506;11.876;2024-03-17T08:05:48;6.20;75.10
14585;DHT22;7379;51.506;11.876;2024-03-17T08:08:15;6.30;75.10
14585;DHT22;7379;51.506;11.876;2024-03-17T08:10:42;6.40;74.90
14585;DHT22;7379;51.506;11.876;2024-03-17T08:13:08;6.30;74.80
14585;DHT22;7379;51.506;11.876;2024-03-17T08:15:35;6.40;74.90
14585;DHT22;7379;51.506;11.876;2024-03-17T08:18:02;6.40;74.90
14585;DHT22;7379;51.506;11.876;2024-03-17T08:20:30;6.40;74.90
14585;DHT22;7379;51.506;11.876;2024-03-17T08:22:57;6.40;74.90
14585;DHT22;7379;51.506;11.876;2024-03-17T08:25:23;6.40;75.00
14585;DHT22;7379;51.506;11.876;2024-03-17T08:27:50;6.50;75.20
14585;DHT22;7379;51.506;11.876;2024-03-17T08:30:17;6.50;75.30
14585;DHT22;7379;51.506;11.876;2024-03-17T08:32:44;6.50;75.30
14585;DHT22;7379;51.506;11.876;2024-03-17T08:35:10;6.50;75.30
14585;DHT22;7379;51.506;11.876;2024-03-17T08:37:38;6.50;75.10
14585;DHT22;7379;51.506;11.876;2024-03-17T08:40:06;6.50;75.00
14585;DHT22;7379;51.506;11.876;2024-03-17T08:42:34;6.50;75.00
14585;DHT22;7379;51.506;11.876;2024-03-17T08:45:01;6.50;75.30
14585;DHT22;7379;51.506;11.876;2024-03-17T08:47:28;6.60;75.20
14585;DHT22;7379;51.506;11.876;2024-03-17T08:49:55;6.60;75.20
14585;DHT22;7379;51.506;11.876;2024-03-17T08:52:23;6.60;74.80
14585;DHT22;7379;51.506;11.876;2024-03-17T08:54:51;6.60;74.60
14585;DHT22;7379;51.506;11.876;2024-03-17T08:57:18;6.60;74.60
14585;DHT22;7379;51.506;11.876;2024-03-17T08:59:46;6.60;74.60
14585;DHT22;7379;51.506;11.876;2024-03-17T09:02:14;6.60;74.60
14585;DHT22;7379;51.506;11.876;2024-03-17T09:04:41;6.70;74.60
14585;DHT22;7379;51.506;11.876;2024-03-17T09:07:08;6.70;74.40
14585;DHT22;7379;51.506;11.876;2024-03-17T09:09:34;6.70;74.20
14585;DHT22;7379;51.506;11.876;2024-03-17T09:12:02;6.70;73.90
14585;DHT22;7379;51.506;11.876;2024-03-17T09:14:30;6.70;73.70
14585;DHT22;7379;51.506;11.876;2024-03-17T09:16:57;6.80;73.80
14585;DHT22;7379;51.506;11.876;2024-03-17T09:19:24;6.80;73.70
14585;DHT22;7379;51.506;11.876;2024-03-17T09:21:51;6.80;73.60
14585;DHT22;7379;51.506;11.876;2024-03-17T09:24:17;6.80;73.40
14585;DHT22;7379;51.506;11.876;2024-03-17T09:26:44;6.90;73.00
14585;DHT22;7379;51.506;11.876;2024-03-17T09:29:12;6.90;73.10
14585;DHT22;7379;51.506;11.876;2024-03-17T09:31:40;6.90;73.10
14585;DHT22;7379;51.506;11.876;2024-03-17T09:34:07;6.90;73.00
14585;DHT22;7379;51.506;11.876;2024-03-17T09:36:34;6.90;73.00
14585;DHT22;7379;51.506;11.876;2024-03-17T09:39:01;6.90;73.10
14585;DHT22;7379;51.506;11.876;2024-03-17T09:41:30;6.90;73.10
14585;DHT22;7379;51.506;11.876;2024-03-17T09:43:57;6.90;73.10
14585;DHT22;7379;51.506;11.876;2024-03-17T09:46:26;6.90;73.10
14585;DHT22;7379;51.506;11.876;2024-03-17T09:48:54;6.90;73.00
14585;DHT22;7379;51.506;11.876;2024-03-17T09:51:25;6.90;72.60
14585;DHT22;7379;51.506;11.876;2024-03-17T09:53:52;6.90;72.70
14585;DHT22;7379;51.506;11.876;2024-03-17T09:56:20;6.90;73.00
14585;DHT22;7379;51.506;11.876;2024-03-17T09:58:47;7.00;72.90
14585;DHT22;7379;51.506;11.876;2024-03-17T10:01:14;7.00;72.70
14585;DHT22;7379;51.506;11.876;2024-03-17T10:03:44;7.00;72.50
14585;DHT22;7379;51.506;11.876;2024-03-17T10:06:12;7.00;72.30
14585;DHT22;7379;51.506;11.876;2024-03-17T10:08:46;7.00;72.10
14585;DHT22;7379;51.506;11.876;2024-03-17T10:11:14;7.10;71.70
14585;DHT22;7379;51.506;11.876;2024-03-17T10:13:42;7.10;71.50
14585;DHT22;7379;51.506;11.876;2024-03-17T10:16:22;7.10;71.30
14585;DHT22;7379;51.506;11.876;2024-03-17T10:18:51;7.10;71.20
14585;DHT22;7379;51.506;11.876;2024-03-17T10:21:31;7.20;71.40
14585;DHT22;7379;51.506;11.876;2024-03-17T10:24:05;7.20;71.40
14585;DHT22;7379;51.506;11.876;2024-03-17T10:26:35;7.20;71.50
14585;DHT22;7379;51.506;11.876;2024-03-17T10:29:02;7.20;71.60
14585;DHT22;7379;51.506;11.876;2024-03-17T10:31:29;7.20;71.50
14585;DHT22;7379;51.506;11.876;2024-03-17T10:34:02;7.20;72.30
14585;DHT22;7379;51.506;11.876;2024-03-17T10:36:29;7.30;72.20
14585;DHT22;7379;51.506;11.876;2024-03-17T10:38:55;7.30;71.80
14585;DHT22;7379;51.506;11.876;2024-03-17T10:41:23;7.30;71.70
14585;DHT22;7379;51.506;11.876;2024-03-17T10:43:51;7.30;71.80
14585;DHT22;7379;51.506;11.876;2024-03-17T10:46:19;7.30;72.10
14585;DHT22;7379;51.506;11.876;2024-03-17T10:48:48;7.40;71.80
14585;DHT22;7379;51.506;11.876;2024-03-17T10:51:17;7.40;70.70
14585;DHT22;7379;51.506;11.876;2024-03-17T10:53:46;7.60;70.30
14585;DHT22;7379;51.506;11.876;2024-03-17T10:56:15;7.60;70.10
14585;DHT22;7379;51.506;11.876;2024-03-17T10:58:44;7.50;69.20
14585;DHT22;7379;51.506;11.876;2024-03-17T11:01:14;7.50;68.80
14585;DHT22;7379;51.506;11.876;2024-03-17T11:03:41;7.50;68.50
14585;DHT22;7379;51.506;11.876;2024-03-17T11:06:10;7.50;68.80
14585;DHT22;7379;51.506;11.876;2024-03-17T11:08:38;7.80;67.30
14585;DHT22;7379;51.506;11.876;2024-03-17T11:11:07;8.00;66.80
14585;DHT22;7379;51.506;11.876;2024-03-17T11:13:34;8.10;65.70
14585;DHT22;7379;51.506;11.876;2024-03-17T11:16:04;8.10;65.80
14585;DHT22;7379;51.506;11.876;2024-03-17T11:18:51;8.20;65.70
14585;DHT22;7379;51.506;11.876;2024-03-17T11:21:22;8.10;66.50
14585;DHT22;7379;51.506;11.876;2024-03-17T11:24:02;8.10;67.30
14585;DHT22;7379;51.506;11.876;2024-03-17T11:26:32;8.10;67.70
14585;DHT22;7379;51.506;11.876;2024-03-17T11:28:59;8.10;67.70
14585;DHT22;7379;51.506;11.876;2024-03-17T11:31:43;8.10;67.40
14585;DHT22;7379;51.506;11.876;2024-03-17T11:34:37;8.00;67.60
14585;DHT22;7379;51.506;11.876;2024-03-17T11:37:05;8.00;67.40
14585;DHT22;7379;51.506;11.876;2024-03-17T11:39:52;8.00;67.10
14585;DHT22;7379;51.506;11.876;2024-03-17T11:42:23;8.00;67.20
14585;DHT22;7379;51.506;11.876;2024-03-17T11:45:04;8.00;67.10
14585;DHT22;7379;51.506;11.876;2024-03-17T11:47:39;8.10;67.00
14585;DHT22;7379;51.506;11.876;2024-03-17T11:50:08;8.10;66.30
14585;DHT22;7379;51.506;11.876;2024-03-17T11:52:36;8.10;66.40
14585;DHT22;7379;51.506;11.876;2024-03-17T11:55:04;8.10;66.90
14585;DHT22;7379;51.506;11.876;2024-03-17T11:57:30;8.30;67.60
14585;DHT22;7379;51.506;11.876;2024-03-17T11:59:57;8.40;68.00
14585;DHT22;7379;51.506;11.876;2024-03-17T12:02:24;8.40;67.00
14585;DHT22;7379;51.506;11.876;2024-03-17T12:04:51;8.40;66.30
14585;DHT22;7379;51.506;11.876;2024-03-17T12:07:18;8.40;65.70
14585;DHT22;7379;51.506;11.876;2024-03-17T12:09:47;8.40;65.70
14585;DHT22;7379;51.506;11.876;2024-03-17T12:12:17;8.40;64.70
14585;DHT22;7379;51.506;11.876;2024-03-17T12:14:45;8.30;64.70
14585;DHT22;7379;51.506;11.876;2024-03-17T12:17:12;8.40;64.00
14585;DHT22;7379;51.506;11.876;2024-03-17T12:19:40;8.40;64.70
14585;DHT22;7379;51.506;11.876;2024-03-17T12:22:06;8.50;64.80
14585;DHT22;7379;51.506;11.876;2024-03-17T12:24:34;8.70;63.60
14585;DHT22;7379;51.506;11.876;2024-03-17T12:27:04;8.80;64.60
14585;DHT22;7379;51.506;11.876;2024-03-17T12:29:33;8.80;63.80
14585;DHT22;7379;51.506;11.876;2024-03-17T12:32:03;8.80;63.60
14585;DHT22;7379;51.506;11.876;2024-03-17T12:34:32;8.90;63.80
14585;DHT22;7379;51.506;11.876;2024-03-17T12:37:00;9.00;62.60
14585;DHT22;7379;51.506;11.876;2024-03-17T12:39:27;9.20;61.70
14585;DHT22;7379;51.506;11.876;2024-03-17T12:42:02;9.30;61.10
14585;DHT22;7379;51.506;11.876;2024-03-17T12:44:28;9.40;60.30
14585;DHT22;7379;51.506;11.876;2024-03-17T12:46:57;9.40;61.30
14585;DHT22;7379;51.506;11.876;2024-03-17T12:49:23;9.60;60.50
14585;DHT22;7379;51.506;11.876;2024-03-17T12:51:51;9.70;59.40
14585;DHT22;7379;51.506;11.876;2024-03-17T12:54:20;9.70;59.30
14585;DHT22;7379;51.506;11.876;2024-03-17T12:56:48;9.70;59.60
14585;DHT22;7379;51.506;11.876;2024-03-17T12:59:40;9.70;60.90
14585;DHT22;7379;51.506;11.876;2024-03-17T13:02:25;9.70;60.60
14585;DHT22;7379;51.506;11.876;2024-03-17T13:05:15;9.80;61.10
14585;DHT22;7379;51.506;11.876;2024-03-17T13:07:43;9.90;60.60
14585;DHT22;7379;51.506;11.876;2024-03-17T13:10:12;9.90;60.80
14585;DHT22;7379;51.506;11.876;2024-03-17T13:12:39;9.90;59.30
14585;DHT22;7379;51.506;11.876;2024-03-17T13:15:08;10.00;58.20
14585;DHT22;7379;51.506;11.876;2024-03-17T13:17:36;10.10;58.80
14585;DHT22;7379;51.506;11.876;2024-03-17T13:20:03;10.10;58.30
14585;DHT22;7379;51.506;11.876;2024-03-17T13:22:34;10.10;57.50
14585;DHT22;7379;51.506;11.876;2024-03-17T13:25:00;10.20;58.40
14585;DHT22;7379;51.506;11.876;2024-03-17T13:27:27;10.30;57.10
14585;DHT22;7379;51.506;11.876;2024-03-17T13:29:54;10.30;57.30
14585;DHT22;7379;51.506;11.876;2024-03-17T13:32:20;10.40;55.70
14585;DHT22;7379;51.506;11.876;2024-03-17T13:34:48;10.40;55.80
14585;DHT22;7379;51.506;11.876;2024-03-17T13:37:16;10.60;57.00
14585;DHT22;7379;51.506;11.876;2024-03-17T13:39:43;10.60;56.70
14585;DHT22;7379;51.506;11.876;2024-03-17T13:42:10;10.60;55.70
14585;DHT22;7379;51.506;11.876;2024-03-17T13:44:37;10.60;55.50
14585;DHT22;7379;51.506;11.876;2024-03-17T13:47:03;10.50;55.50
14585;DHT22;7379;51.506;11.876;2024-03-17T13:49:30;10.40;55.00
14585;DHT22;7379;51.506;11.876;2024-03-17T13:51:58;10.30;55.10
14585;DHT22;7379;51.506;11.876;2024-03-17T13:54:25;10.30;55.70
14585;DHT22;7379;51.506;11.876;2024-03-17T13:56:53;10.20;55.40
14585;DHT22;7379;51.506;11.876;2024-03-17T13:59:20;10.10;55.20
14585;DHT22;7379;51.506;11.876;2024-03-17T14:01:47;10.00;54.80
14585;DHT22;7379;51.506;11.876;2024-03-17T14:04:15;10.00;56.10
14585;DHT22;7379;51.506;11.876;2024-03-17T14:06:43;10.10;55.70
14585;DHT22;7379;51.506;11.876;2024-03-17T14:09:12;10.20;55.60
14585;DHT22;7379;51.506;11.876;2024-03-17T14:11:39;10.40;55.20
14585;DHT22;7379;51.506;11.876;2024-03-17T14:14:06;10.40;54.50
14585;DHT22;7379;51.506;11.876;2024-03-17T14:16:33;10.50;54.30
14585;DHT22;7379;51.506;11.876;2024-03-17T14:19:00;10.50;53.60
14585;DHT22;7379;51.506;11.876;2024-03-17T14:21:27;10.70;53.90
14585;DHT22;7379;51.506;11.876;2024-03-17T14:23:54;10.70;54.40
14585;DHT22;7379;51.506;11.876;2024-03-17T14:26:23;10.90;54.10
14585;DHT22;7379;51.506;11.876;2024-03-17T14:28:49;11.00;54.70
14585;DHT22;7379;51.506;11.876;2024-03-17T14:31:17;11.00;54.50
14585;DHT22;7379;51.506;11.876;2024-03-17T14:33:44;11.10;54.00
14585;DHT22;7379;51.506;11.876;2024-03-17T14:36:11;11.10;53.60
14585;DHT22;7379;51.506;11.876;2024-03-17T14:38:37;11.20;53.60
14585;DHT22;7379;51.506;11.876;2024-03-17T14:41:04;11.20;54.10
14585;DHT22;7379;51.506;11.876;2024-03-17T14:43:32;11.30;53.60
14585;DHT22;7379;51.506;11.876;2024-03-17T14:46:03;11.40;53.60
14585;DHT22;7379;51.506;11.876;2024-03-17T14:48:30;11.40;53.40
14585;DHT22;7379;51.506;11.876;2024-03-17T14:50:57;11.50;53.00
14585;DHT22;7379;51.506;11.876;2024-03-17T14:53:23;11.50;53.40
14585;DHT22;7379;51.506;11.876;2024-03-17T14:55:50;11.50;53.40
14585;DHT22;7379;51.506;11.876;2024-03-17T14:58:17;11.60;52.80
14585;DHT22;7379;51.506;11.876;2024-03-17T15:00:45;11.60;51.80
14585;DHT22;7379;51.506;11.876;2024-03-17T15:03:12;11.60;52.20
14585;DHT22;7379;51.506;11.876;2024-03-17T15:05:39;11.70;51.10
14585;DHT22;7379;51.506;11.876;2024-03-17T15:08:06;11.70;51.10
14585;DHT22;7379;51.506;11.876;2024-03-17T15:10:35;11.70;51.00
14585;DHT22;7379;51.506;11.876;2024-03-17T15:13:01;11.80;51.50
14585;DHT22;7379;51.506;11.876;2024-03-17T15:15:28;11.90;52.10
14585;DHT22;7379;51.506;11.876;2024-03-17T15:17:56;11.90;52.50
14585;DHT22;7379;51.506;11.876;2024-03-17T15:20:23;11.90;51.10
14585;DHT22;7379;51.506;11.876;2024-03-17T15:22:51;12.00;51.60
14585;DHT22;7379;51.506;11.876;2024-03-17T15:25:18;12.00;51.90
14585;DHT22;7379;51.506;11.876;2024-03-17T15:27:47;12.10;50.20
14585;DHT22;7379;51.506;11.876;2024-03-17T15:30:15;12.10;51.40
14585;DHT22;7379;51.506;11.876;2024-03-17T15:32:44;12.10;51.40
14585;DHT22;7379;51.506;11.876;2024-03-17T15:35:12;12.20;50.90
14585;DHT22;7379;51.506;11.876;2024-03-17T15:37:40;12.20;51.10
14585;DHT22;7379;51.506;11.876;2024-03-17T15:40:08;12.20;51.10
14585;DHT22;7379;51.506;11.876;2024-03-17T15:42:42;12.20;50.90
14585;DHT22;7379;51.506;11.876;2024-03-17T15:45:08;12.30;51.20
14585;DHT22;7379;51.506;11.876;2024-03-17T15:47:35;12.20;51.00